sensor_id;sensor_type;location;lat;lon;timestamp;P1;durP1;ratioP1;P2;durP2;ratioP2
12603;SDS011;6367;52.508;13.284;2022-07-30T00:01:58;4.17;;;2.03;;
12603;SDS011;6367;52.508;13.284;2022-07-30T00:04:24;2.60;;;2.40;;
12603;SDS011;6367;52.508;13.284;2022-07-30T00:06:50;4.60;;;2.27;;
12603;SDS011;6367;52.508;13.284;2022-07-30T00:09:16;3.43;;;2.67;;
12603;SDS011;6367;52.508;13.284;2022-07-30T00:11:42;4.13;;;2.50;;
12603;SDS011;6367;52.508;13.284;2022-07-30T00:14:08;4.33;;;2.40;;
12603;SDS011;6367;52.508;13.284;2022-07-30T00:16:34;6.07;;;2.77;;
12603;SDS011;6367;52.508;13.284;2022-07-30T00:19:00;4.50;;;2.70;;
12603;SDS011;6367;52.508;13.284;2022-07-30T00:21:26;4.03;;;2.10;;
12603;SDS011;6367;52.508;13.284;2022-07-30T00:23:52;2.20;;;2.00;;
12603;SDS011;6367;52.508;13.284;2022-07-30T00:26:18;6.27;;;3.03;;
12603;SDS011;6367;52.508;13.284;2022-07-30T00:28:43;6.13;;;3.60;;
12603;SDS011;6367;52.508;13.284;2022-07-30T00:31:09;3.23;;;2.47;;
12603;SDS011;6367;52.508;13.284;2022-07-30T00:33:34;3.43;;;2.40;;
12603;SDS011;6367;52.508;13.284;2022-07-30T00:36:00;4.60;;;2.40;;
12603;SDS011;6367;52.508;13.284;2022-07-30T00:38:26;2.60;;;2.40;;
12603;SDS011;6367;52.508;13.284;2022-07-30T00:40:51;4.93;;;2.70;;
12603;SDS011;6367;52.508;13.284;2022-07-30T00:43:17;2.60;;;2.40;;
12603;SDS011;6367;52.508;13.284;2022-07-30T00:45:43;2.40;;;2.20;;
12603;SDS011;6367;52.508;13.284;2022-07-30T00:48:10;3.80;;;2.30;;
12603;SDS011;6367;52.508;13.284;2022-07-30T00:50:36;3.10;;;2.20;;
12603;SDS011;6367;52.508;13.284;2022-07-30T00:53:03;3.03;;;2.33;;
12603;SDS011;6367;52.508;13.284;2022-07-30T00:55:29;3.63;;;2.37;;
12603;SDS011;6367;52.508;13.284;2022-07-30T00:57:54;4.70;;;2.63;;
12603;SDS011;6367;52.508;13.284;2022-07-30T01:00:20;2.70;;;2.50;;
12603;SDS011;6367;52.508;13.284;2022-07-30T01:02:46;6.80;;;3.33;;
12603;SDS011;6367;52.508;13.284;2022-07-30T01:05:11;6.87;;;2.50;;
12603;SDS011;6367;52.508;13.284;2022-07-30T01:07:38;2.40;;;2.20;;
12603;SDS011;6367;52.508;13.284;2022-07-30T01:10:04;4.60;;;2.27;;
12603;SDS011;6367;52.508;13.284;2022-07-30T01:12:32;5.47;;;2.90;;
12603;SDS011;6367;52.508;13.284;2022-07-30T01:14:58;2.67;;;2.20;;
12603;SDS011;6367;52.508;13.284;2022-07-30T01:17:26;4.27;;;2.47;;
12603;SDS011;6367;52.508;13.284;2022-07-30T01:19:53;2.90;;;2.60;;
12603;SDS011;6367;52.508;13.284;2022-07-30T01:25:00;2.53;;;2.23;;
12603;SDS011;6367;52.508;13.284;2022-07-30T01:27:32;4.27;;;3.00;;
12603;SDS011;6367;52.508;13.284;2022-07-30T01:30:05;4.17;;;2.23;;
12603;SDS011;6367;52.508;13.284;2022-07-30T01:32:32;3.33;;;2.33;;
12603;SDS011;6367;52.508;13.284;2022-07-30T01:35:01;3.60;;;2.60;;
12603;SDS011;6367;52.508;13.284;2022-07-30T01:37:29;4.13;;;3.20;;
12603;SDS011;6367;52.508;13.284;2022-07-30T01:39:57;3.97;;;2.73;;
12603;SDS011;6367;52.508;13.284;2022-07-30T01:42:23;4.43;;;2.37;;
12603;SDS011;6367;52.508;13.284;2022-07-30T01:44:52;4.60;;;2.63;;
12603;SDS011;6367;52.508;13.284;2022-07-30T01:47:19;4.20;;;2.30;;
12603;SDS011;6367;52.508;13.284;2022-07-30T01:49:46;4.47;;;2.63;;
12603;SDS011;6367;52.508;13.284;2022-07-30T01:52:13;6.70;;;2.47;;
12603;SDS011;6367;52.508;13.284;2022-07-30T01:54:41;5.40;;;2.90;;
12603;SDS011;6367;52.508;13.284;2022-07-30T01:57:09;3.80;;;2.53;;
12603;SDS011;6367;52.508;13.284;2022-07-30T01:59:36;2.60;;;2.30;;
12603;SDS011;6367;52.508;13.284;2022-07-30T02:02:04;2.63;;;2.33;;
12603;SDS011;6367;52.508;13.284;2022-07-30T02:04:30;4.80;;;2.40;;
12603;SDS011;6367;52.508;13.284;2022-07-30T02:09:33;5.70;;;2.40;;
12603;SDS011;6367;52.508;13.284;2022-07-30T02:12:01;3.03;;;2.83;;
12603;SDS011;6367;52.508;13.284;2022-07-30T02:14:51;4.50;;;2.70;;
12603;SDS011;6367;52.508;13.284;2022-07-30T02:17:21;3.63;;;2.20;;
12603;SDS011;6367;52.508;13.284;2022-07-30T02:19:50;5.07;;;3.20;;
12603;SDS011;6367;52.508;13.284;2022-07-30T02:22:18;4.77;;;2.47;;
12603;SDS011;6367;52.508;13.284;2022-07-30T02:24:47;3.93;;;2.37;;
12603;SDS011;6367;52.508;13.284;2022-07-30T02:27:16;3.20;;;2.70;;
12603;SDS011;6367;52.508;13.284;2022-07-30T02:29:46;2.80;;;2.23;;
12603;SDS011;6367;52.508;13.284;2022-07-30T02:32:15;4.93;;;2.50;;
12603;SDS011;6367;52.508;13.284;2022-07-30T02:34:45;4.47;;;2.80;;
12603;SDS011;6367;52.508;13.284;2022-07-30T02:37:13;3.00;;;2.70;;
12603;SDS011;6367;52.508;13.284;2022-07-30T02:39:40;4.00;;;2.37;;
12603;SDS011;6367;52.508;13.284;2022-07-30T02:42:07;5.03;;;2.73;;
12603;SDS011;6367;52.508;13.284;2022-07-30T02:44:34;3.80;;;2.23;;
12603;SDS011;6367;52.508;13.284;2022-07-30T02:47:02;4.00;;;3.17;;
12603;SDS011;6367;52.508;13.284;2022-07-30T02:49:30;6.67;;;2.47;;
12603;SDS011;6367;52.508;13.284;2022-07-30T02:51:57;4.27;;;2.60;;
12603;SDS011;6367;52.508;13.284;2022-07-30T02:54:24;2.67;;;2.43;;
12603;SDS011;6367;52.508;13.284;2022-07-30T02:56:52;3.27;;;2.33;;
12603;SDS011;6367;52.508;13.284;2022-07-30T02:59:19;3.67;;;2.27;;
12603;SDS011;6367;52.508;13.284;2022-07-30T03:01:46;3.63;;;2.30;;
12603;SDS011;6367;52.508;13.284;2022-07-30T03:04:12;2.87;;;2.60;;
12603;SDS011;6367;52.508;13.284;2022-07-30T03:06:40;2.73;;;2.13;;
12603;SDS011;6367;52.508;13.284;2022-07-30T03:09:07;2.37;;;2.17;;
12603;SDS011;6367;52.508;13.284;2022-07-30T03:11:34;4.50;;;2.10;;
12603;SDS011;6367;52.508;13.284;2022-07-30T03:14:00;3.83;;;2.60;;
12603;SDS011;6367;52.508;13.284;2022-07-30T03:16:27;2.40;;;2.20;;
12603;SDS011;6367;52.508;13.284;2022-07-30T03:18:54;2.40;;;1.97;;
12603;SDS011;6367;52.508;13.284;2022-07-30T03:21:24;4.40;;;2.73;;
12603;SDS011;6367;52.508;13.284;2022-07-30T03:23:52;2.77;;;2.47;;
12603;SDS011;6367;52.508;13.284;2022-07-30T03:26:20;4.00;;;2.37;;
12603;SDS011;6367;52.508;13.284;2022-07-30T03:28:48;5.00;;;2.30;;
12603;SDS011;6367;52.508;13.284;2022-07-30T03:31:14;2.53;;;2.20;;
12603;SDS011;6367;52.508;13.284;2022-07-30T03:33:40;2.63;;;2.37;;
12603;SDS011;6367;52.508;13.284;2022-07-30T03:36:07;3.47;;;2.20;;
12603;SDS011;6367;52.508;13.284;2022-07-30T03:38:36;2.30;;;2.10;;
12603;SDS011;6367;52.508;13.284;2022-07-30T03:41:03;3.23;;;2.50;;
12603;SDS011;6367;52.508;13.284;2022-07-30T03:43:30;3.20;;;2.57;;
12603;SDS011;6367;52.508;13.284;2022-07-30T03:45:56;3.70;;;2.37;;
12603;SDS011;6367;52.508;13.284;2022-07-30T03:48:22;4.07;;;2.40;;
12603;SDS011;6367;52.508;13.284;2022-07-30T03:50:49;4.20;;;2.53;;
12603;SDS011;6367;52.508;13.284;2022-07-30T03:53:15;3.17;;;2.20;;
12603;SDS011;6367;52.508;13.284;2022-07-30T03:55:43;3.57;;;2.53;;
12603;SDS011;6367;52.508;13.284;2022-07-30T03:58:09;2.93;;;2.13;;
12603;SDS011;6367;52.508;13.284;2022-07-30T04:00:35;4.10;;;2.73;;
12603;SDS011;6367;52.508;13.284;2022-07-30T04:03:03;2.73;;;2.53;;
12603;SDS011;6367;52.508;13.284;2022-07-30T04:05:29;2.80;;;2.60;;
12603;SDS011;6367;52.508;13.284;2022-07-30T04:07:55;4.07;;;2.50;;
12603;SDS011;6367;52.508;13.284;2022-07-30T04:10:20;3.50;;;2.50;;
12603;SDS011;6367;52.508;13.284;2022-07-30T04:12:46;3.83;;;2.83;;
12603;SDS011;6367;52.508;13.284;2022-07-30T04:15:12;3.40;;;2.17;;
12603;SDS011;6367;52.508;13.284;2022-07-30T04:17:45;5.70;;;3.70;;
12603;SDS011;6367;52.508;13.284;2022-07-30T04:20:22;2.83;;;2.40;;
12603;SDS011;6367;52.508;13.284;2022-07-30T04:22:53;2.70;;;2.50;;
12603;SDS011;6367;52.508;13.284;2022-07-30T04:25:21;3.53;;;2.07;;
12603;SDS011;6367;52.508;13.284;2022-07-30T04:27:47;5.23;;;2.70;;
12603;SDS011;6367;52.508;13.284;2022-07-30T04:30:13;4.13;;;2.03;;
12603;SDS011;6367;52.508;13.284;2022-07-30T04:32:40;3.70;;;2.60;;
12603;SDS011;6367;52.508;13.284;2022-07-30T04:35:06;2.50;;;2.20;;
12603;SDS011;6367;52.508;13.284;2022-07-30T04:37:32;4.03;;;2.17;;
12603;SDS011;6367;52.508;13.284;2022-07-30T04:39:58;3.30;;;2.60;;
12603;SDS011;6367;52.508;13.284;2022-07-30T04:42:24;2.90;;;2.43;;
12603;SDS011;6367;52.508;13.284;2022-07-30T04:44:51;2.47;;;2.10;;
12603;SDS011;6367;52.508;13.284;2022-07-30T04:47:17;2.30;;;2.10;;
12603;SDS011;6367;52.508;13.284;2022-07-30T04:49:44;4.17;;;2.60;;
12603;SDS011;6367;52.508;13.284;2022-07-30T04:52:10;3.13;;;2.40;;
12603;SDS011;6367;52.508;13.284;2022-07-30T04:54:39;2.73;;;2.53;;
12603;SDS011;6367;52.508;13.284;2022-07-30T04:57:17;3.73;;;2.37;;
12603;SDS011;6367;52.508;13.284;2022-07-30T04:59:44;2.87;;;2.67;;
12603;SDS011;6367;52.508;13.284;2022-07-30T05:02:10;3.70;;;2.40;;
12603;SDS011;6367;52.508;13.284;2022-07-30T05:04:36;2.20;;;2.00;;
12603;SDS011;6367;52.508;13.284;2022-07-30T05:07:04;2.37;;;2.17;;
12603;SDS011;6367;52.508;13.284;2022-07-30T05:09:31;4.60;;;2.47;;
12603;SDS011;6367;52.508;13.284;2022-07-30T05:11:57;6.40;;;2.10;;
12603;SDS011;6367;52.508;13.284;2022-07-30T05:14:23;2.50;;;2.30;;
12603;SDS011;6367;52.508;13.284;2022-07-30T05:16:49;3.73;;;2.30;;
12603;SDS011;6367;52.508;13.284;2022-07-30T05:19:17;2.60;;;2.33;;
12603;SDS011;6367;52.508;13.284;2022-07-30T05:21:43;2.50;;;2.30;;
12603;SDS011;6367;52.508;13.284;2022-07-30T05:24:09;2.60;;;2.03;;
12603;SDS011;6367;52.508;13.284;2022-07-30T05:26:34;3.00;;;2.30;;
12603;SDS011;6367;52.508;13.284;2022-07-30T05:29:00;3.00;;;2.23;;
12603;SDS011;6367;52.508;13.284;2022-07-30T05:31:26;3.30;;;2.40;;
12603;SDS011;6367;52.508;13.284;2022-07-30T05:33:51;2.23;;;1.90;;
12603;SDS011;6367;52.508;13.284;2022-07-30T05:36:20;3.87;;;2.20;;
12603;SDS011;6367;52.508;13.284;2022-07-30T05:38:46;2.90;;;2.27;;
12603;SDS011;6367;52.508;13.284;2022-07-30T05:41:13;3.10;;;2.40;;
12603;SDS011;6367;52.508;13.284;2022-07-30T05:43:39;2.40;;;2.20;;
12603;SDS011;6367;52.508;13.284;2022-07-30T05:46:04;3.10;;;1.90;;
12603;SDS011;6367;52.508;13.284;2022-07-30T05:48:30;5.57;;;2.17;;
12603;SDS011;6367;52.508;13.284;2022-07-30T05:50:59;3.30;;;2.50;;
12603;SDS011;6367;52.508;13.284;2022-07-30T05:53:28;2.70;;;1.80;;
12603;SDS011;6367;52.508;13.284;2022-07-30T05:55:53;3.70;;;2.00;;
12603;SDS011;6367;52.508;13.284;2022-07-30T05:58:19;3.53;;;2.40;;
12603;SDS011;6367;52.508;13.284;2022-07-30T06:00:45;4.60;;;2.30;;
12603;SDS011;6367;52.508;13.284;2022-07-30T06:03:11;3.30;;;2.00;;
12603;SDS011;6367;52.508;13.284;2022-07-30T06:05:37;2.20;;;1.90;;
12603;SDS011;6367;52.508;13.284;2022-07-30T06:08:03;7.13;;;3.00;;
12603;SDS011;6367;52.508;13.284;2022-07-30T06:10:29;2.57;;;2.37;;
12603;SDS011;6367;52.508;13.284;2022-07-30T06:12:55;5.33;;;2.53;;
12603;SDS011;6367;52.508;13.284;2022-07-30T06:15:20;2.97;;;2.40;;
12603;SDS011;6367;52.508;13.284;2022-07-30T06:17:46;3.40;;;2.50;;
12603;SDS011;6367;52.508;13.284;2022-07-30T06:20:13;3.07;;;2.30;;
12603;SDS011;6367;52.508;13.284;2022-07-30T06:22:39;3.70;;;2.37;;
12603;SDS011;6367;52.508;13.284;2022-07-30T06:25:06;3.30;;;2.50;;
12603;SDS011;6367;52.508;13.284;2022-07-30T06:27:32;3.17;;;2.03;;
12603;SDS011;6367;52.508;13.284;2022-07-30T06:29:59;5.43;;;2.60;;
12603;SDS011;6367;52.508;13.284;2022-07-30T06:32:25;5.73;;;2.03;;
12603;SDS011;6367;52.508;13.284;2022-07-30T06:34:51;3.73;;;2.10;;
12603;SDS011;6367;52.508;13.284;2022-07-30T06:37:16;4.10;;;2.53;;
12603;SDS011;6367;52.508;13.284;2022-07-30T06:39:42;4.17;;;2.50;;
12603;SDS011;6367;52.508;13.284;2022-07-30T06:42:08;2.20;;;2.00;;
12603;SDS011;6367;52.508;13.284;2022-07-30T06:44:33;3.77;;;1.97;;
12603;SDS011;6367;52.508;13.284;2022-07-30T06:46:59;3.87;;;2.30;;
12603;SDS011;6367;52.508;13.284;2022-07-30T06:49:24;4.00;;;2.27;;
12603;SDS011;6367;52.508;13.284;2022-07-30T06:51:50;2.50;;;2.10;;
12603;SDS011;6367;52.508;13.284;2022-07-30T06:54:16;2.30;;;2.10;;
12603;SDS011;6367;52.508;13.284;2022-07-30T06:56:41;4.10;;;2.53;;
12603;SDS011;6367;52.508;13.284;2022-07-30T06:59:07;2.80;;;2.00;;
12603;SDS011;6367;52.508;13.284;2022-07-30T07:01:33;2.70;;;2.23;;
12603;SDS011;6367;52.508;13.284;2022-07-30T07:03:58;2.30;;;1.97;;
12603;SDS011;6367;52.508;13.284;2022-07-30T07:06:24;3.53;;;2.17;;
12603;SDS011;6367;52.508;13.284;2022-07-30T07:08:50;2.53;;;2.33;;
12603;SDS011;6367;52.508;13.284;2022-07-30T07:11:15;4.87;;;2.23;;
12603;SDS011;6367;52.508;13.284;2022-07-30T07:13:41;5.87;;;2.50;;
12603;SDS011;6367;52.508;13.284;2022-07-30T07:16:07;3.70;;;2.20;;
12603;SDS011;6367;52.508;13.284;2022-07-30T07:18:33;2.97;;;2.20;;
12603;SDS011;6367;52.508;13.284;2022-07-30T07:20:58;4.70;;;1.80;;
12603;SDS011;6367;52.508;13.284;2022-07-30T07:23:24;3.87;;;2.10;;
12603;SDS011;6367;52.508;13.284;2022-07-30T07:25:50;3.83;;;2.33;;
12603;SDS011;6367;52.508;13.284;2022-07-30T07:28:15;2.60;;;2.40;;
12603;SDS011;6367;52.508;13.284;2022-07-30T07:30:41;3.30;;;2.77;;
12603;SDS011;6367;52.508;13.284;2022-07-30T07:33:07;2.90;;;2.30;;
12603;SDS011;6367;52.508;13.284;2022-07-30T07:35:33;2.00;;;1.87;;
12603;SDS011;6367;52.508;13.284;2022-07-30T07:37:59;2.07;;;1.83;;
12603;SDS011;6367;52.508;13.284;2022-07-30T07:40:26;2.90;;;2.03;;
12603;SDS011;6367;52.508;13.284;2022-07-30T07:42:52;2.10;;;1.90;;
12603;SDS011;6367;52.508;13.284;2022-07-30T07:45:17;2.80;;;1.80;;
12603;SDS011;6367;52.508;13.284;2022-07-30T07:47:46;4.93;;;2.50;;
12603;SDS011;6367;52.508;13.284;2022-07-30T07:50:16;3.13;;;2.47;;
12603;SDS011;6367;52.508;13.284;2022-07-30T07:52:43;2.20;;;2.07;;
12603;SDS011;6367;52.508;13.284;2022-07-30T07:55:09;2.50;;;2.30;;
12603;SDS011;6367;52.508;13.284;2022-07-30T07:57:41;2.60;;;2.40;;
12603;SDS011;6367;52.508;13.284;2022-07-30T08:00:08;2.70;;;2.50;;
12603;SDS011;6367;52.508;13.284;2022-07-30T08:02:35;3.13;;;2.07;;
12603;SDS011;6367;52.508;13.284;2022-07-30T08:05:02;3.37;;;2.40;;
12603;SDS011;6367;52.508;13.284;2022-07-30T08:07:29;1.80;;;1.70;;
12603;SDS011;6367;52.508;13.284;2022-07-30T08:09:55;2.50;;;2.30;;
12603;SDS011;6367;52.508;13.284;2022-07-30T08:12:21;2.40;;;2.20;;
12603;SDS011;6367;52.508;13.284;2022-07-30T08:14:47;3.53;;;2.43;;
12603;SDS011;6367;52.508;13.284;2022-07-30T08:17:13;5.57;;;1.90;;
12603;SDS011;6367;52.508;13.284;2022-07-30T08:19:38;2.80;;;2.20;;
12603;SDS011;6367;52.508;13.284;2022-07-30T08:22:04;4.90;;;2.47;;
12603;SDS011;6367;52.508;13.284;2022-07-30T08:24:30;4.27;;;2.20;;
12603;SDS011;6367;52.508;13.284;2022-07-30T08:26:55;4.20;;;2.50;;
12603;SDS011;6367;52.508;13.284;2022-07-30T08:29:21;4.27;;;2.27;;
12603;SDS011;6367;52.508;13.284;2022-07-30T08:31:46;4.10;;;2.30;;
12603;SDS011;6367;52.508;13.284;2022-07-30T08:34:12;4.60;;;2.90;;
12603;SDS011;6367;52.508;13.284;2022-07-30T08:36:38;2.23;;;2.03;;
12603;SDS011;6367;52.508;13.284;2022-07-30T08:39:04;2.30;;;2.10;;
12603;SDS011;6367;52.508;13.284;2022-07-30T08:41:29;3.53;;;2.30;;
12603;SDS011;6367;52.508;13.284;2022-07-30T08:43:55;2.23;;;2.03;;
12603;SDS011;6367;52.508;13.284;2022-07-30T08:46:24;3.17;;;2.07;;
12603;SDS011;6367;52.508;13.284;2022-07-30T08:48:53;2.60;;;2.40;;
12603;SDS011;6367;52.508;13.284;2022-07-30T08:51:19;2.10;;;1.70;;
12603;SDS011;6367;52.508;13.284;2022-07-30T08:53:46;3.20;;;2.27;;
12603;SDS011;6367;52.508;13.284;2022-07-30T08:56:12;3.43;;;1.90;;
12603;SDS011;6367;52.508;13.284;2022-07-30T08:58:38;2.20;;;1.97;;
12603;SDS011;6367;52.508;13.284;2022-07-30T09:07:40;2.80;;;2.33;;
12603;SDS011;6367;52.508;13.284;2022-07-30T09:10:18;4.63;;;2.60;;
12603;SDS011;6367;52.508;13.284;2022-07-30T09:12:47;2.47;;;2.07;;
12603;SDS011;6367;52.508;13.284;2022-07-30T09:15:14;2.57;;;2.00;;
12603;SDS011;6367;52.508;13.284;2022-07-30T09:20:24;5.70;;;4.83;;
12603;SDS011;6367;52.508;13.284;2022-07-30T09:22:55;5.40;;;4.40;;
12603;SDS011;6367;52.508;13.284;2022-07-30T09:25:41;4.77;;;4.27;;
12603;SDS011;6367;52.508;13.284;2022-07-30T09:28:09;4.83;;;4.43;;
12603;SDS011;6367;52.508;13.284;2022-07-30T09:30:42;3.17;;;2.37;;
12603;SDS011;6367;52.508;13.284;2022-07-30T09:33:11;3.43;;;2.90;;
12603;SDS011;6367;52.508;13.284;2022-07-30T09:35:38;4.80;;;3.93;;
12603;SDS011;6367;52.508;13.284;2022-07-30T09:38:05;4.07;;;3.77;;
12603;SDS011;6367;52.508;13.284;2022-07-30T09:40:31;3.77;;;2.80;;
12603;SDS011;6367;52.508;13.284;2022-07-30T09:43:04;2.13;;;2.03;;
12603;SDS011;6367;52.508;13.284;2022-07-30T09:45:34;3.43;;;2.60;;
12603;SDS011;6367;52.508;13.284;2022-07-30T09:48:00;3.30;;;2.47;;
12603;SDS011;6367;52.508;13.284;2022-07-30T09:50:27;6.00;;;4.30;;
12603;SDS011;6367;52.508;13.284;2022-07-30T09:52:53;3.30;;;3.00;;
12603;SDS011;6367;52.508;13.284;2022-07-30T09:55:30;2.80;;;2.60;;
12603;SDS011;6367;52.508;13.284;2022-07-30T09:57:59;2.73;;;2.40;;
12603;SDS011;6367;52.508;13.284;2022-07-30T10:00:30;3.73;;;2.30;;
12603;SDS011;6367;52.508;13.284;2022-07-30T10:02:58;2.10;;;1.90;;
12603;SDS011;6367;52.508;13.284;2022-07-30T10:05:24;5.33;;;2.37;;
12603;SDS011;6367;52.508;13.284;2022-07-30T10:07:52;5.63;;;1.97;;
12603;SDS011;6367;52.508;13.284;2022-07-30T10:10:23;3.30;;;1.97;;
12603;SDS011;6367;52.508;13.284;2022-07-30T10:12:51;5.80;;;2.03;;
12603;SDS011;6367;52.508;13.284;2022-07-30T10:15:27;2.63;;;2.03;;
12603;SDS011;6367;52.508;13.284;2022-07-30T10:17:57;1.50;;;1.40;;
12603;SDS011;6367;52.508;13.284;2022-07-30T10:20:23;2.13;;;1.90;;
12603;SDS011;6367;52.508;13.284;2022-07-30T10:22:50;2.93;;;2.00;;
12603;SDS011;6367;52.508;13.284;2022-07-30T10:25:19;1.63;;;1.53;;
12603;SDS011;6367;52.508;13.284;2022-07-30T10:27:47;2.40;;;2.20;;
12603;SDS011;6367;52.508;13.284;2022-07-30T10:30:13;2.93;;;1.83;;
12603;SDS011;6367;52.508;13.284;2022-07-30T10:32:40;4.60;;;2.10;;
12603;SDS011;6367;52.508;13.284;2022-07-30T10:35:07;3.43;;;2.00;;
12603;SDS011;6367;52.508;13.284;2022-07-30T10:37:34;3.20;;;1.90;;
12603;SDS011;6367;52.508;13.284;2022-07-30T10:40:04;3.00;;;2.33;;
12603;SDS011;6367;52.508;13.284;2022-07-30T10:47:38;2.30;;;1.90;;
12603;SDS011;6367;52.508;13.284;2022-07-30T10:52:47;3.37;;;1.90;;
12603;SDS011;6367;52.508;13.284;2022-07-30T10:55:15;4.63;;;2.10;;
12603;SDS011;6367;52.508;13.284;2022-07-30T10:58:08;2.40;;;1.90;;
12603;SDS011;6367;52.508;13.284;2022-07-30T11:03:23;1.60;;;1.50;;
12603;SDS011;6367;52.508;13.284;2022-07-30T11:06:35;2.13;;;1.93;;
12603;SDS011;6367;52.508;13.284;2022-07-30T11:08:39;1.97;;;1.77;;
12603;SDS011;6367;52.508;13.284;2022-07-30T11:13:50;2.07;;;1.60;;
12603;SDS011;6367;52.508;13.284;2022-07-30T11:16:19;1.80;;;1.70;;
12603;SDS011;6367;52.508;13.284;2022-07-30T11:21:29;1.80;;;1.70;;
12603;SDS011;6367;52.508;13.284;2022-07-30T11:23:56;2.07;;;1.90;;
12603;SDS011;6367;52.508;13.284;2022-07-30T11:29:03;2.60;;;1.50;;
12603;SDS011;6367;52.508;13.284;2022-07-30T11:31:30;2.23;;;1.60;;
12603;SDS011;6367;52.508;13.284;2022-07-30T11:42:29;2.30;;;1.50;;
12603;SDS011;6367;52.508;13.284;2022-07-30T11:45:18;1.60;;;1.50;;
12603;SDS011;6367;52.508;13.284;2022-07-30T11:47:45;2.47;;;1.57;;
12603;SDS011;6367;52.508;13.284;2022-07-30T11:50:21;1.60;;;1.50;;
12603;SDS011;6367;52.508;13.284;2022-07-30T11:52:58;1.97;;;1.57;;
12603;SDS011;6367;52.508;13.284;2022-07-30T11:55:37;2.60;;;1.40;;
12603;SDS011;6367;52.508;13.284;2022-07-30T11:58:06;1.90;;;1.50;;
12603;SDS011;6367;52.508;13.284;2022-07-30T12:00:46;2.10;;;1.57;;
12603;SDS011;6367;52.508;13.284;2022-07-30T12:03:15;2.50;;;1.73;;
12603;SDS011;6367;52.508;13.284;2022-07-30T12:05:43;2.33;;;1.37;;
12603;SDS011;6367;52.508;13.284;2022-07-30T12:08:10;1.77;;;1.53;;
12603;SDS011;6367;52.508;13.284;2022-07-30T12:10:36;2.70;;;1.40;;
12603;SDS011;6367;52.508;13.284;2022-07-30T12:13:06;4.03;;;1.63;;
12603;SDS011;6367;52.508;13.284;2022-07-30T12:15:40;1.87;;;1.40;;
12603;SDS011;6367;52.508;13.284;2022-07-30T12:18:07;2.83;;;1.90;;
12603;SDS011;6367;52.508;13.284;2022-07-30T12:20:36;1.60;;;1.50;;
12603;SDS011;6367;52.508;13.284;2022-07-30T12:23:02;2.30;;;1.40;;
12603;SDS011;6367;52.508;13.284;2022-07-30T12:25:36;4.37;;;1.40;;
12603;SDS011;6367;52.508;13.284;2022-07-30T12:28:03;3.17;;;1.40;;
12603;SDS011;6367;52.508;13.284;2022-07-30T12:30:28;2.40;;;1.53;;
12603;SDS011;6367;52.508;13.284;2022-07-30T12:32:54;5.27;;;1.50;;
12603;SDS011;6367;52.508;13.284;2022-07-30T12:35:20;4.00;;;1.67;;
12603;SDS011;6367;52.508;13.284;2022-07-30T12:38:00;1.40;;;1.30;;
12603;SDS011;6367;52.508;13.284;2022-07-30T12:40:27;3.10;;;1.77;;
12603;SDS011;6367;52.508;13.284;2022-07-30T12:42:53;1.70;;;1.43;;
12603;SDS011;6367;52.508;13.284;2022-07-30T12:45:25;1.57;;;1.47;;
12603;SDS011;6367;52.508;13.284;2022-07-30T12:47:51;3.53;;;1.40;;
12603;SDS011;6367;52.508;13.284;2022-07-30T12:50:17;2.93;;;1.70;;
12603;SDS011;6367;52.508;13.284;2022-07-30T12:52:46;2.83;;;1.80;;
12603;SDS011;6367;52.508;13.284;2022-07-30T12:55:13;2.03;;;1.50;;
12603;SDS011;6367;52.508;13.284;2022-07-30T12:57:56;1.73;;;1.50;;
12603;SDS011;6367;52.508;13.284;2022-07-30T13:00:29;2.40;;;1.67;;
12603;SDS011;6367;52.508;13.284;2022-07-30T13:02:57;2.00;;;1.67;;
12603;SDS011;6367;52.508;13.284;2022-07-30T13:08:08;2.00;;;1.60;;
12603;SDS011;6367;52.508;13.284;2022-07-30T13:10:34;1.73;;;1.63;;
12603;SDS011;6367;52.508;13.284;2022-07-30T13:12:59;1.90;;;1.47;;
12603;SDS011;6367;52.508;13.284;2022-07-30T13:15:26;3.03;;;1.50;;
12603;SDS011;6367;52.508;13.284;2022-07-30T13:17:51;1.50;;;1.40;;
12603;SDS011;6367;52.508;13.284;2022-07-30T13:20:17;1.77;;;1.60;;
12603;SDS011;6367;52.508;13.284;2022-07-30T13:22:43;3.63;;;1.50;;
12603;SDS011;6367;52.508;13.284;2022-07-30T13:25:09;4.23;;;1.50;;
12603;SDS011;6367;52.508;13.284;2022-07-30T13:27:35;1.90;;;1.80;;
12603;SDS011;6367;52.508;13.284;2022-07-30T13:30:02;2.67;;;1.70;;
12603;SDS011;6367;52.508;13.284;2022-07-30T13:32:28;2.43;;;1.80;;
12603;SDS011;6367;52.508;13.284;2022-07-30T13:34:55;4.23;;;1.50;;
12603;SDS011;6367;52.508;13.284;2022-07-30T13:37:21;1.63;;;1.53;;
12603;SDS011;6367;52.508;13.284;2022-07-30T13:39:50;1.90;;;1.60;;
12603;SDS011;6367;52.508;13.284;2022-07-30T13:42:15;2.60;;;1.80;;
12603;SDS011;6367;52.508;13.284;2022-07-30T13:44:41;4.10;;;1.73;;
12603;SDS011;6367;52.508;13.284;2022-07-30T13:47:06;2.13;;;1.50;;
12603;SDS011;6367;52.508;13.284;2022-07-30T13:49:33;1.77;;;1.60;;
12603;SDS011;6367;52.508;13.284;2022-07-30T13:52:07;2.13;;;1.70;;
12603;SDS011;6367;52.508;13.284;2022-07-30T13:54:33;3.10;;;2.20;;
12603;SDS011;6367;52.508;13.284;2022-07-30T13:56:59;1.77;;;1.67;;
12603;SDS011;6367;52.508;13.284;2022-07-30T13:59:24;1.60;;;1.50;;
12603;SDS011;6367;52.508;13.284;2022-07-30T14:01:50;5.20;;;1.60;;
12603;SDS011;6367;52.508;13.284;2022-07-30T14:04:16;3.30;;;1.43;;
12603;SDS011;6367;52.508;13.284;2022-07-30T14:06:41;5.50;;;1.90;;
12603;SDS011;6367;52.508;13.284;2022-07-30T14:09:08;2.10;;;1.90;;
12603;SDS011;6367;52.508;13.284;2022-07-30T14:11:33;1.57;;;1.43;;
12603;SDS011;6367;52.508;13.284;2022-07-30T14:13:59;2.77;;;1.63;;
12603;SDS011;6367;52.508;13.284;2022-07-30T14:16:25;2.00;;;1.70;;
12603;SDS011;6367;52.508;13.284;2022-07-30T14:18:51;1.97;;;1.77;;
12603;SDS011;6367;52.508;13.284;2022-07-30T14:21:16;2.50;;;1.87;;
12603;SDS011;6367;52.508;13.284;2022-07-30T14:23:42;2.07;;;1.87;;
12603;SDS011;6367;52.508;13.284;2022-07-30T14:26:07;2.07;;;1.53;;
12603;SDS011;6367;52.508;13.284;2022-07-30T14:28:33;3.10;;;1.80;;
12603;SDS011;6367;52.508;13.284;2022-07-30T14:30:59;2.80;;;1.63;;
12603;SDS011;6367;52.508;13.284;2022-07-30T14:33:24;2.03;;;1.87;;
12603;SDS011;6367;52.508;13.284;2022-07-30T14:35:50;1.80;;;1.70;;
12603;SDS011;6367;52.508;13.284;2022-07-30T14:38:16;4.70;;;1.50;;
12603;SDS011;6367;52.508;13.284;2022-07-30T14:40:41;2.87;;;1.40;;
12603;SDS011;6367;52.508;13.284;2022-07-30T14:43:07;3.40;;;1.80;;
12603;SDS011;6367;52.508;13.284;2022-07-30T14:45:32;1.63;;;1.53;;
12603;SDS011;6367;52.508;13.284;2022-07-30T14:48:00;2.37;;;1.80;;
12603;SDS011;6367;52.508;13.284;2022-07-30T14:50:25;2.87;;;1.60;;
12603;SDS011;6367;52.508;13.284;2022-07-30T14:52:51;2.27;;;1.77;;
12603;SDS011;6367;52.508;13.284;2022-07-30T14:55:17;2.77;;;2.53;;
12603;SDS011;6367;52.508;13.284;2022-07-30T14:57:43;3.43;;;3.23;;
12603;SDS011;6367;52.508;13.284;2022-07-30T15:00:08;2.23;;;2.03;;
12603;SDS011;6367;52.508;13.284;2022-07-30T15:02:35;3.57;;;1.73;;
12603;SDS011;6367;52.508;13.284;2022-07-30T15:05:01;2.40;;;1.50;;
12603;SDS011;6367;52.508;13.284;2022-07-30T15:07:27;2.77;;;1.80;;
12603;SDS011;6367;52.508;13.284;2022-07-30T15:09:53;1.70;;;1.60;;
12603;SDS011;6367;52.508;13.284;2022-07-30T15:12:19;3.23;;;2.23;;
12603;SDS011;6367;52.508;13.284;2022-07-30T15:14:44;2.83;;;2.37;;
12603;SDS011;6367;52.508;13.284;2022-07-30T15:17:12;5.37;;;1.90;;
12603;SDS011;6367;52.508;13.284;2022-07-30T15:19:38;2.00;;;1.80;;
12603;SDS011;6367;52.508;13.284;2022-07-30T15:22:03;2.90;;;2.10;;
12603;SDS011;6367;52.508;13.284;2022-07-30T15:24:30;2.37;;;1.50;;
12603;SDS011;6367;52.508;13.284;2022-07-30T15:26:56;1.80;;;1.57;;
12603;SDS011;6367;52.508;13.284;2022-07-30T15:29:22;1.97;;;1.60;;
12603;SDS011;6367;52.508;13.284;2022-07-30T15:31:51;2.40;;;1.77;;
12603;SDS011;6367;52.508;13.284;2022-07-30T15:34:16;2.43;;;1.70;;